Time;durP1;ratioP1;P1;durP2;ratioP2;P2;SDS_P1;SDS_P2;PMS_P1;PMS_P2;Temp;Humidity;BMP_temperature;BMP_pressure;BME280_temperature;BME280_humidity;BME280_pressure;Samples;Min_cycle;Max_cycle;Signal;HPM_P1;HPM_P2
2021/01/14 00:02:21;;;;;;;15.10;14.40;;;5.30;90.40;;;;;;5032044;28;20190;-77
2021/01/14 00:04:47;;;;;;;14.20;13.60;;;5.30;89.60;;;;;;5032410;28;20201;-77
2021/01/14 00:07:13;;;;;;;14.43;13.82;;;5.20;89.30;;;;;;5014555;28;20216;-77
2021/01/14 00:09:40;;;;;;;14.40;13.80;;;5.10;89.40;;;;;;5028709;28;20284;-77
2021/01/14 00:12:07;;;;;;;13.90;13.30;;;5.10;89.00;;;;;;5033612;28;20650;-77
2021/01/14 00:14:34;;;;;;;14.43;13.73;;;5.10;89.00;;;;;;5036398;28;20291;-77
2021/01/14 00:17:01;;;;;;;15.38;14.68;;;5.10;88.50;;;;;;5020549;28;20218;-77
2021/01/14 00:19:27;;;;;;;15.27;14.05;;;5.00;88.70;;;;;;5015999;28;20198;-77
2021/01/14 00:21:53;;;;;;;14.48;13.60;;;5.00;91.20;;;;;;5030465;28;20189;-77
2021/01/14 00:24:20;;;;;;;14.50;13.90;;;4.90;90.70;;;;;;5036093;28;20292;-77
2021/01/14 00:26:47;;;;;;;109.20;22.08;;;4.90;90.50;;;;;;5035669;28;20218;-77
2021/01/14 00:29:14;;;;;;;14.40;13.80;;;4.80;91.10;;;;;;5035799;28;20259;-77
2021/01/14 00:31:41;;;;;;;14.57;13.98;;;4.80;90.90;;;;;;5023086;28;20214;-77
2021/01/14 00:34:07;;;;;;;14.45;13.85;;;4.80;90.50;;;;;;5015888;28;20206;-77
2021/01/14 00:37:50;;;;;;;14.48;13.88;;;4.70;90.70;;;;;;5015729;28;20330;-77
2021/01/14 00:39:20;;;;;;;15.10;14.40;;;4.80;90.00;;;;;;5018211;28;20604;-77
2021/01/14 00:41:47;;;;;;;14.80;14.20;;;4.90;89.40;;;;;;5035569;28;20199;-77
2021/01/14 00:44:14;;;;;;;942.53;126.88;;;4.70;89.50;;;;;;5035567;28;20288;-77
2021/01/14 00:46:40;;;;;;;82.75;20.77;;;4.70;90.40;;;;;;5024685;28;20689;-77
2021/01/14 00:49:07;;;;;;;15.95;13.90;;;4.60;91.10;;;;;;5015651;28;20204;-77
2021/01/14 00:51:34;;;;;;;301.75;40.03;;;4.60;92.90;;;;;;5015436;28;20229;-77
2021/01/14 00:54:00;;;;;;;14.70;14.07;;;4.60;93.70;;;;;;5015585;28;20205;-77
2021/01/14 00:56:37;;;;;;;15.73;14.95;;;4.50;91.30;;;;;;5031909;28;20559;-77
2021/01/14 00:59:04;;;;;;;15.75;15.05;;;4.50;90.90;;;;;;5035306;28;20273;-77
2021/01/14 01:01:33;;;;;;;16.10;14.80;;;4.50;90.90;;;;;;5035123;28;20280;-77
2021/01/14 01:04:00;;;;;;;15.77;14.98;;;4.60;90.70;;;;;;5035283;28;20210;-77
2021/01/14 01:06:36;;;;;;;16.65;15.05;;;4.50;90.50;;;;;;5018067;28;20218;-77
2021/01/14 01:09:03;;;;;;;15.40;14.70;;;4.50;91.10;;;;;;5015344;28;20198;-77
2021/01/14 01:11:30;;;;;;;15.70;14.90;;;4.60;91.20;;;;;;5015134;28;20198;-77
2021/01/14 01:13:56;;;;;;;15.27;14.57;;;4.60;90.90;;;;;;5015504;28;20557;-77
2021/01/14 01:16:23;;;;;;;15.90;15.10;;;4.70;90.10;;;;;;5030736;28;20228;-77
2021/01/14 01:18:50;;;;;;;16.35;15.55;;;4.60;90.20;;;;;;5034993;28;20766;-77
2021/01/14 01:21:16;;;;;;;15.45;14.65;;;4.60;90.00;;;;;;5034759;28;20208;-77
2021/01/14 01:23:42;;;;;;;15.73;14.82;;;4.70;89.90;;;;;;5034786;28;20200;-77
2021/01/14 01:26:14;;;;;;;16.63;15.73;;;4.70;90.30;;;;;;5019447;28;20199;-77
2021/01/14 01:28:40;;;;;;;16.40;15.50;;;4.80;89.10;;;;;;5014380;28;20200;-77
2021/01/14 01:31:07;;;;;;;16.10;15.10;;;4.80;89.20;;;;;;5015698;28;20277;-77
2021/01/14 01:33:33;;;;;;;17.00;16.10;;;4.80;89.70;;;;;;5014793;28;20218;-77
2021/01/14 01:36:03;;;;;;;17.10;16.20;;;4.80;88.20;;;;;;5014561;28;20195;-77
2021/01/14 01:38:30;;;;;;;17.23;16.33;;;4.70;88.10;;;;;;5014731;28;20210;-77
2021/01/14 01:40:57;;;;;;;17.70;16.70;;;4.70;88.60;;;;;;5015011;28;20190;-77
2021/01/14 01:43:25;;;;;;;17.70;16.70;;;4.80;88.00;;;;;;5014742;28;20206;-77
2021/01/14 01:45:51;;;;;;;17.70;16.80;;;4.70;87.70;;;;;;5014289;28;20200;-77
2021/01/14 01:48:19;;;;;;;17.58;16.73;;;4.80;87.70;;;;;;5014699;28;20201;-77
2021/01/14 01:50:47;;;;;;;17.65;16.75;;;4.70;86.80;;;;;;5022008;28;20193;-77
2021/01/14 01:53:15;;;;;;;18.05;17.00;;;4.70;87.20;;;;;;5034247;28;20221;-77
2021/01/14 01:55:43;;;;;;;17.50;16.60;;;4.80;87.50;;;;;;5033955;28;20235;-77
2021/01/14 01:58:11;;;;;;;17.73;16.73;;;4.80;87.60;;;;;;5034040;28;20215;-77
2021/01/14 02:00:37;;;;;;;17.70;16.50;;;4.80;86.90;;;;;;5027523;28;20194;-77
2021/01/14 02:03:04;;;;;;;16.35;15.55;;;4.80;87.60;;;;;;5014237;28;20241;-77
2021/01/14 02:05:30;;;;;;;18.23;17.13;;;4.90;87.50;;;;;;5014038;28;20618;-77
2021/01/14 02:08:07;;;;;;;17.65;16.75;;;4.90;87.30;;;;;;5014063;28;20760;-77
2021/01/14 02:10:36;;;;;;;17.20;16.30;;;5.00;86.30;;;;;;5019598;28;20276;-77
2021/01/14 02:13:11;;;;;;;17.45;16.45;;;5.00;86.00;;;;;;5033827;28;20258;-77
2021/01/14 02:15:40;;;;;;;16.95;16.05;;;4.90;86.60;;;;;;5033616;28;20193;-77
2021/01/14 02:18:07;;;;;;;16.63;15.82;;;4.80;88.00;;;;;;5031822;28;20208;-77
2021/01/14 02:20:35;;;;;;;18.25;16.40;;;4.80;87.70;;;;;;5033729;28;20200;-77
2021/01/14 02:23:07;;;;;;;16.77;15.88;;;4.80;87.00;;;;;;5033690;28;20197;-77
2021/01/14 02:25:45;;;;;;;16.20;15.40;;;4.70;88.60;;;;;;5033573;28;20197;-77
2021/01/14 02:28:12;;;;;;;59.05;19.77;;;4.70;87.70;;;;;;5021589;28;20218;-77
2021/01/14 02:30:38;;;;;;;17.80;16.90;;;4.70;87.80;;;;;;5013663;28;20202;-77
2021/01/14 02:33:05;;;;;;;16.48;15.57;;;4.80;87.00;;;;;;5013630;28;20226;-77
2021/01/14 02:35:31;;;;;;;17.85;16.95;;;4.70;88.60;;;;;;5013247;28;20655;-77
2021/01/14 02:37:57;;;;;;;27.20;18.70;;;4.70;87.40;;;;;;5013888;28;20209;-77
2021/01/14 02:40:24;;;;;;;17.73;16.83;;;4.70;87.70;;;;;;5013538;28;20200;-77
2021/01/14 02:42:51;;;;;;;18.98;17.95;;;4.70;87.70;;;;;;5013445;28;20552;-77
2021/01/14 02:45:18;;;;;;;17.30;16.50;;;4.70;86.80;;;;;;5014611;28;20666;-77
2021/01/14 02:47:45;;;;;;;18.67;17.52;;;4.60;86.60;;;;;;5013371;28;20293;-77
2021/01/14 02:50:13;;;;;;;17.23;16.42;;;4.50;87.00;;;;;;5013418;28;20197;-77
2021/01/14 02:52:42;;;;;;;17.50;16.60;;;4.50;88.40;;;;;;5016742;28;20617;-77
2021/01/14 02:55:09;;;;;;;17.65;16.65;;;4.50;88.00;;;;;;5033162;28;20206;-77
2021/01/14 02:57:35;;;;;;;18.88;17.40;;;4.50;88.30;;;;;;5032357;28;20735;-77
2021/01/14 03:00:03;;;;;;;206.70;32.25;;;4.50;88.30;;;;;;5033063;28;20201;-77
2021/01/14 03:02:30;;;;;;;16.50;15.70;;;4.50;89.20;;;;;;5030394;28;20190;-77
2021/01/14 03:04:56;;;;;;;18.27;17.15;;;4.50;90.00;;;;;;5013323;28;20202;-77
2021/01/14 03:07:22;;;;;;;18.50;17.40;;;4.40;88.30;;;;;;5013099;28;20587;-77
2021/01/14 03:09:49;;;;;;;17.48;16.67;;;4.50;87.90;;;;;;5013153;28;20735;-78
2021/01/14 03:12:15;;;;;;;18.70;17.45;;;4.50;87.00;;;;;;5013384;28;20218;-78
2021/01/14 03:14:41;;;;;;;18.52;17.33;;;4.60;87.00;;;;;;5032606;28;20251;-77
2021/01/14 03:17:09;;;;;;;17.45;16.55;;;4.50;87.60;;;;;;5032572;28;20217;-77
2021/01/14 03:19:35;;;;;;;18.70;17.65;;;4.50;87.10;;;;;;5032789;28;20195;-77
2021/01/14 03:22:02;;;;;;;18.15;17.15;;;4.50;87.20;;;;;;5032697;28;20194;-77
2021/01/14 03:24:29;;;;;;;19.00;17.83;;;4.50;87.30;;;;;;5015100;28;20194;-77
2021/01/14 03:26:55;;;;;;;17.75;16.85;;;4.50;87.00;;;;;;5012694;28;20220;-77
2021/01/14 03:29:21;;;;;;;17.15;16.35;;;4.40;86.90;;;;;;5013306;28;20213;-77
2021/01/14 03:31:48;;;;;;;17.58;16.67;;;4.40;87.10;;;;;;5012954;28;20225;-77
2021/01/14 03:34:15;;;;;;;18.35;17.35;;;4.40;86.40;;;;;;5028397;28;20275;-77
2021/01/14 03:39:23;;;;;;;18.15;16.95;;;4.40;86.60;;;;;;5012637;28;20362;-77
2021/01/14 03:41:49;;;;;;;17.40;16.50;;;4.40;86.70;;;;;;5012747;28;20256;-77
2021/01/14 03:44:15;;;;;;;18.23;17.10;;;4.40;86.60;;;;;;5028159;28;20658;-77
2021/01/14 03:46:46;;;;;;;18.88;17.77;;;4.40;86.80;;;;;;5034171;28;20763;-77
2021/01/14 03:49:12;;;;;;;17.75;16.83;;;4.10;87.00;;;;;;5036584;28;20556;-77
2021/01/14 03:51:39;;;;;;;17.48;16.58;;;4.20;87.90;;;;;;5036321;28;20692;-77
2021/01/14 03:54:07;;;;;;;19.45;17.80;;;4.20;87.00;;;;;;5033330;28;20205;-77
2021/01/14 03:56:37;;;;;;;18.15;17.15;;;4.00;87.30;;;;;;5036017;28;20212;-77
2021/01/14 03:59:04;;;;;;;19.00;17.98;;;4.00;87.50;;;;;;5036382;28;20201;-77
2021/01/14 04:01:31;;;;;;;18.48;17.38;;;4.00;87.60;;;;;;5036175;28;20567;-77
2021/01/14 04:03:57;;;;;;;18.30;17.40;;;4.00;87.90;;;;;;5036622;28;20197;-77
2021/01/14 04:06:31;;;;;;;19.42;18.40;;;4.00;88.00;;;;;;5035457;28;20239;-77
2021/01/14 04:08:59;;;;;;;18.48;17.23;;;3.90;88.80;;;;;;5036201;28;20197;-77
2021/01/14 04:11:26;;;;;;;20.25;19.05;;;3.90;88.70;;;;;;5036107;28;20201;-77
2021/01/14 04:13:53;;;;;;;18.33;16.92;;;4.00;90.80;;;;;;5036272;28;20221;-77
2021/01/14 04:16:19;;;;;;;18.08;17.17;;;3.90;90.30;;;;;;5017721;28;20268;-77
2021/01/14 04:18:45;;;;;;;19.20;18.20;;;4.00;90.10;;;;;;5016151;28;20677;-77
2021/01/14 04:21:14;;;;;;;18.40;17.40;;;3.90;89.80;;;;;;5016201;28;20198;-77
2021/01/14 04:23:41;;;;;;;20.13;18.83;;;3.90;90.00;;;;;;5026213;28;20193;-77
2021/01/14 04:26:08;;;;;;;17.90;17.00;;;4.00;89.50;;;;;;5035847;28;20201;-77
2021/01/14 04:28:34;;;;;;;186.30;35.05;;;4.00;89.00;;;;;;5036350;28;20201;-77
2021/01/14 04:31:01;;;;;;;828.25;119.18;;;4.00;89.60;;;;;;5036095;28;20197;-77
2021/01/14 04:33:27;;;;;;;18.50;17.48;;;3.90;89.80;;;;;;5028101;28;20210;-77
2021/01/14 04:35:55;;;;;;;18.40;17.10;;;3.90;92.80;;;;;;5016397;28;20190;-77
2021/01/14 04:38:23;;;;;;;17.60;16.50;;;3.90;92.20;;;;;;5016626;28;20217;-77
2021/01/14 04:40:56;;;;;;;18.17;17.20;;;3.90;92.10;;;;;;5016276;28;20232;-77
2021/01/14 04:43:25;;;;;;;18.58;17.45;;;3.90;91.60;;;;;;5016185;28;20193;-77
2021/01/14 04:45:55;;;;;;;19.90;18.80;;;3.90;91.30;;;;;;5016318;28;20202;-77
2021/01/14 04:48:22;;;;;;;19.95;18.67;;;3.90;90.30;;;;;;5016269;28;20205;-77
2021/01/14 04:50:50;;;;;;;18.98;17.73;;;3.90;90.00;;;;;;5016064;28;20202;-77
2021/01/14 04:53:20;;;;;;;54.53;22.13;;;3.90;90.00;;;;;;5021509;28;20217;-77
2021/01/14 04:55:48;;;;;;;606.50;82.20;;;3.90;90.70;;;;;;5034578;28;20212;-77
2021/01/14 04:58:16;;;;;;;20.30;18.48;;;3.90;93.50;;;;;;5034454;28;20216;-77
2021/01/14 05:00:51;;;;;;;19.02;17.70;;;3.90;92.30;;;;;;5030208;28;20198;-77
2021/01/14 05:03:22;;;;;;;321.65;45.75;;;3.80;91.10;;;;;;5015289;28;20191;-77
2021/01/14 05:05:49;;;;;;;17.52;16.45;;;3.70;92.00;;;;;;5015407;28;20251;-77
2021/01/14 05:08:17;;;;;;;18.88;17.70;;;3.70;96.80;;;;;;5017889;28;20206;-77
2021/01/14 05:10:44;;;;;;;19.95;18.65;;;3.80;94.30;;;;;;5035102;28;20288;-77
2021/01/14 05:13:12;;;;;;;19.65;18.33;;;3.70;93.40;;;;;;5034885;28;20690;-77
2021/01/14 05:15:39;;;;;;;19.63;18.52;;;3.60;93.00;;;;;;5034942;28;20528;-77
2021/01/14 05:18:08;;;;;;;19.45;18.40;;;3.60;92.70;;;;;;5033466;28;20232;-77
2021/01/14 05:20:34;;;;;;;18.50;17.40;;;3.60;93.50;;;;;;5015110;28;20194;-77
2021/01/14 05:23:01;;;;;;;17.08;16.10;;;3.70;92.80;;;;;;5014923;28;20277;-77
2021/01/14 05:25:29;;;;;;;19.23;18.02;;;3.60;94.90;;;;;;5014861;28;20241;-77
2021/01/14 05:28:06;;;;;;;18.10;17.00;;;3.70;93.40;;;;;;5014893;28;20275;-77
2021/01/14 05:30:32;;;;;;;19.88;18.20;;;3.60;93.20;;;;;;5013538;28;20194;-77
2021/01/14 05:32:59;;;;;;;166.88;34.53;;;3.70;92.00;;;;;;5015848;28;20232;-77
2021/01/14 05:35:30;;;;;;;17.80;16.75;;;3.60;92.90;;;;;;5024035;28;20197;-77
2021/01/14 05:38:03;;;;;;;17.58;16.58;;;3.60;97.40;;;;;;5014700;28;20222;-77
2021/01/14 05:40:30;;;;;;;18.67;17.58;;;3.50;95.20;;;;;;5014760;28;20591;-77
2021/01/14 05:43:05;;;;;;;17.75;16.73;;;3.50;93.90;;;;;;5014701;28;20205;-77
2021/01/14 05:45:32;;;;;;;138.65;30.83;;;3.50;93.40;;;;;;5032070;28;20193;-77
2021/01/14 05:48:08;;;;;;;17.65;16.55;;;3.50;94.20;;;;;;5034077;28;20221;-77
2021/01/14 05:50:43;;;;;;;17.30;16.30;;;3.60;93.80;;;;;;5034320;28;20196;-77
2021/01/14 05:53:16;;;;;;;18.02;16.85;;;3.60;92.80;;;;;;5033977;28;20215;-77
2021/01/14 05:55:44;;;;;;;18.55;17.55;;;3.70;91.80;;;;;;5033645;28;20201;-77
2021/01/14 05:58:17;;;;;;;76.50;22.10;;;3.70;91.10;;;;;;5034319;28;20214;-77
2021/01/14 06:00:45;;;;;;;18.92;17.65;;;3.60;91.50;;;;;;5034121;28;20201;-77
2021/01/14 06:03:28;;;;;;;17.80;16.70;;;3.50;92.30;;;;;;5034022;28;20200;-77
2021/01/14 06:05:56;;;;;;;18.40;17.33;;;3.50;92.30;;;;;;4994405;28;20199;-77
2021/01/14 06:08:24;;;;;;;19.02;17.92;;;3.60;92.10;;;;;;5010570;28;20256;-77
2021/01/14 06:10:51;;;;;;;18.45;17.45;;;3.60;91.10;;;;;;5013196;28;20570;-77
2021/01/14 06:13:17;;;;;;;18.40;17.40;;;3.60;90.90;;;;;;5014021;28;20225;-77
2021/01/14 06:15:44;;;;;;;19.00;17.80;;;3.70;90.40;;;;;;5014627;28;20667;-78
2021/01/14 06:18:12;;;;;;;18.65;17.35;;;3.60;89.90;;;;;;5033874;28;20287;-77
2021/01/14 06:20:53;;;;;;;19.10;17.90;;;3.60;89.90;;;;;;5031085;28;20797;-77
2021/01/14 06:23:23;;;;;;;18.15;17.15;;;3.60;89.90;;;;;;5031629;28;20204;-77
2021/01/14 06:25:50;;;;;;;18.70;17.50;;;3.40;89.90;;;;;;5033460;28;20275;-77
2021/01/14 06:28:19;;;;;;;18.70;17.60;;;3.40;90.40;;;;;;5033066;28;20198;-77
2021/01/14 06:31:01;;;;;;;19.65;18.45;;;3.30;90.80;;;;;;5013811;28;20675;-77
2021/01/14 06:33:28;;;;;;;46.20;19.30;;;3.40;91.00;;;;;;5028484;28;20252;-77
2021/01/14 06:36:05;;;;;;;19.08;17.98;;;3.40;91.20;;;;;;5033208;28;20201;-77
2021/01/14 06:38:42;;;;;;;18.67;17.48;;;3.40;91.30;;;;;;5033521;28;20220;-77
2021/01/14 06:41:18;;;;;;;19.35;18.08;;;3.40;91.00;;;;;;5033519;28;20205;-77
2021/01/14 06:43:46;;;;;;;19.63;18.52;;;3.50;90.50;;;;;;5016270;28;20212;-77
2021/01/14 06:46:18;;;;;;;19.08;17.80;;;3.40;90.40;;;;;;5025921;28;20773;-77
2021/01/14 06:48:56;;;;;;;120.20;32.45;;;3.40;90.80;;;;;;5033186;28;20244;-77
2021/01/14 06:51:24;;;;;;;19.85;18.65;;;3.50;90.80;;;;;;5023234;28;20193;-77
2021/01/14 06:53:57;;;;;;;17.45;16.45;;;3.50;90.40;;;;;;5033143;28;20228;-77
2021/01/14 06:56:33;;;;;;;18.52;17.45;;;3.50;89.20;;;;;;5032648;28;20217;-77
2021/01/14 06:59:04;;;;;;;19.20;18.10;;;3.30;89.60;;;;;;5033060;28;20201;-77
2021/01/14 07:01:33;;;;;;;19.50;18.20;;;3.40;90.00;;;;;;5032343;28;20193;-77
2021/01/14 07:04:02;;;;;;;18.95;17.85;;;3.40;91.00;;;;;;5022269;28;20655;-77
2021/01/14 07:06:37;;;;;;;71.05;23.00;;;3.40;89.70;;;;;;5013182;28;20265;-77
2021/01/14 07:09:13;;;;;;;18.98;17.75;;;3.40;90.40;;;;;;5013340;28;20205;-77
2021/01/14 07:11:42;;;;;;;20.20;18.95;;;3.40;90.00;;;;;;5030298;28;20207;-77
2021/01/14 07:14:15;;;;;;;19.98;18.77;;;3.30;89.80;;;;;;5032505;28;20213;-77
2021/01/14 07:16:43;;;;;;;557.33;99.18;;;3.40;90.20;;;;;;5032190;28;20213;-77
2021/01/14 07:19:09;;;;;;;43.47;21.83;;;3.40;89.90;;;;;;5015480;28;20198;-77
2021/01/14 07:21:37;;;;;;;21.67;20.35;;;3.40;91.50;;;;;;5022690;28;20247;-77
2021/01/14 07:24:18;;;;;;;20.27;18.95;;;3.50;91.00;;;;;;5032783;28;20206;-77
2021/01/14 07:26:45;;;;;;;22.33;20.80;;;3.50;90.00;;;;;;5019420;28;20308;-77
2021/01/14 07:29:12;;;;;;;22.98;19.48;;;3.50;89.90;;;;;;5015705;28;20299;-77
2021/01/14 07:31:47;;;;;;;22.20;20.38;;;3.50;94.20;;;;;;5013686;28;20612;-77
2021/01/14 07:34:35;;;;;;;19.65;18.27;;;3.40;93.20;;;;;;5013167;28;20217;-77
2021/01/14 07:37:02;;;;;;;20.13;18.85;;;3.50;92.80;;;;;;5027318;28;20209;-77
2021/01/14 07:39:52;;;;;;;21.10;19.75;;;3.50;94.90;;;;;;5032620;28;20232;-77
2021/01/14 07:42:27;;;;;;;21.42;20.05;;;3.50;92.70;;;;;;5026508;28;20190;-77
2021/01/14 07:44:55;;;;;;;21.00;19.58;;;3.50;91.30;;;;;;5032447;28;20334;-77
2021/01/14 07:47:29;;;;;;;22.90;21.50;;;3.40;91.20;;;;;;5022942;28;20234;-77
2021/01/14 07:49:56;;;;;;;20.83;19.48;;;3.50;91.10;;;;;;5022261;28;20604;-77
2021/01/14 07:52:29;;;;;;;1140.57;158.20;;;3.40;90.60;;;;;;5015300;28;20308;-77
2021/01/14 07:55:01;;;;;;;21.40;19.90;;;3.40;90.60;;;;;;5012648;28;20260;-77
2021/01/14 07:57:28;;;;;;;21.92;20.42;;;3.30;91.50;;;;;;5020788;28;20212;-77
2021/01/14 07:59:59;;;;;;;21.00;19.70;;;3.40;93.80;;;;;;5032301;28;20540;-77
2021/01/14 08:02:25;;;;;;;22.63;21.08;;;3.40;92.40;;;;;;5014653;28;20202;-77
2021/01/14 08:04:53;;;;;;;22.35;20.67;;;3.50;95.00;;;;;;5012859;28;20289;-77
2021/01/14 08:07:24;;;;;;;21.38;19.88;;;3.50;95.30;;;;;;5012408;28;20218;-77
2021/01/14 08:09:52;;;;;;;22.50;20.95;;;3.60;93.20;;;;;;5012877;28;20348;-77
2021/01/14 08:12:20;;;;;;;20.80;19.40;;;3.50;94.20;;;;;;5012188;28;20272;-77
2021/01/14 08:14:47;;;;;;;130.02;28.92;;;3.50;92.90;;;;;;5020869;28;20217;-77
2021/01/14 08:17:25;;;;;;;49.83;25.40;;;3.50;93.70;;;;;;5019746;28;20210;-77
2021/01/14 08:19:52;;;;;;;1419.60;180.82;;;3.40;93.20;;;;;;5031571;28;20193;-77
2021/01/14 08:22:18;;;;;;;22.00;20.50;;;3.50;94.00;;;;;;5027531;28;20196;-77
2021/01/14 08:24:50;;;;;;;362.80;50.88;;;3.50;93.30;;;;;;5012439;28;20634;-77
2021/01/14 08:27:33;;;;;;;22.50;21.00;;;3.60;91.10;;;;;;5012253;28;20306;-77
2021/01/14 08:30:03;;;;;;;24.25;22.65;;;3.70;90.90;;;;;;5012493;28;20204;-77
2021/01/14 08:32:41;;;;;;;882.85;125.82;;;3.70;88.10;;;;;;5018450;28;20229;-77
2021/01/14 08:35:16;;;;;;;22.30;20.52;;;3.70;90.50;;;;;;5035396;28;20193;-77
2021/01/14 08:37:46;;;;;;;20.90;19.50;;;3.60;90.00;;;;;;5035658;28;20213;-77
2021/01/14 08:40:14;;;;;;;23.77;21.38;;;3.60;89.70;;;;;;4996470;28;20252;-77
2021/01/14 08:42:43;;;;;;;23.00;21.35;;;3.70;89.50;;;;;;5011335;28;20299;-77
2021/01/14 08:45:19;;;;;;;25.35;22.63;;;3.70;88.80;;;;;;5035429;28;20201;-77
2021/01/14 08:47:58;;;;;;;25.30;23.40;;;3.60;90.70;;;;;;5018330;28;20214;-77
2021/01/14 08:50:48;;;;;;;22.92;21.27;;;3.70;87.70;;;;;;5015554;28;20627;-77
2021/01/14 08:53:26;;;;;;;22.60;21.23;;;3.60;87.80;;;;;;5018769;28;20214;-77
2021/01/14 08:55:54;;;;;;;92.18;28.25;;;3.60;88.60;;;;;;5014939;28;20260;-78
2021/01/14 08:58:32;;;;;;;24.67;22.85;;;3.50;90.60;;;;;;5031694;28;20197;-77
2021/01/14 09:00:58;;;;;;;22.27;20.75;;;3.60;89.20;;;;;;5035031;28;20209;-77
2021/01/14 09:03:26;;;;;;;24.10;22.55;;;3.60;88.40;;;;;;5031258;28;20669;-77
2021/01/14 09:05:53;;;;;;;24.17;22.67;;;3.60;87.40;;;;;;5035030;28;20781;-77
2021/01/14 09:08:19;;;;;;;24.17;22.58;;;3.70;85.60;;;;;;5033625;28;20200;-77
2021/01/14 09:10:48;;;;;;;22.23;20.77;;;3.70;85.30;;;;;;5034989;28;20201;-77
2021/01/14 09:13:17;;;;;;;22.90;21.40;;;3.70;85.30;;;;;;5029513;28;20210;-77
2021/01/14 09:15:45;;;;;;;24.60;23.02;;;3.70;84.50;;;;;;5015166;28;20198;-77
2021/01/14 09:18:12;;;;;;;22.50;21.00;;;3.70;85.40;;;;;;5029276;28;20703;-77
2021/01/14 09:20:38;;;;;;;1006.58;136.27;;;3.70;86.30;;;;;;5034808;28;20197;-77
2021/01/14 09:23:17;;;;;;;24.25;22.55;;;3.80;88.40;;;;;;5029914;28;20236;-77
2021/01/14 09:25:44;;;;;;;245.93;44.30;;;3.80;88.10;;;;;;5015870;28;20904;-77
2021/01/14 09:28:11;;;;;;;22.40;20.63;;;3.80;91.00;;;;;;5014870;28;20229;-77
2021/01/14 09:30:37;;;;;;;23.17;21.50;;;3.80;94.10;;;;;;5015001;28;20225;-77
2021/01/14 09:33:05;;;;;;;21.50;20.20;;;3.80;91.80;;;;;;5021161;28;20682;-77
2021/01/14 09:35:31;;;;;;;22.58;21.08;;;3.80;89.90;;;;;;5033303;28;20404;-77
2021/01/14 09:37:58;;;;;;;235.82;43.45;;;3.80;89.20;;;;;;5014690;28;20224;-77
2021/01/14 09:40:25;;;;;;;23.63;21.95;;;3.80;90.00;;;;;;5014719;28;20198;-77
2021/01/14 09:42:52;;;;;;;22.73;21.25;;;3.80;89.50;;;;;;5014681;28;20271;-77
2021/01/14 09:45:20;;;;;;;22.88;21.42;;;3.90;88.10;;;;;;5014739;28;20209;-77
2021/01/14 09:47:48;;;;;;;22.98;21.52;;;3.90;87.20;;;;;;5014269;28;20214;-77
2021/01/14 09:50:17;;;;;;;24.17;22.27;;;4.00;86.10;;;;;;5014778;28;20198;-77
2021/01/14 09:52:44;;;;;;;23.23;21.45;;;4.00;86.40;;;;;;5014770;28;20222;-77
2021/01/14 09:55:13;;;;;;;23.83;22.23;;;4.00;84.30;;;;;;5025965;28;20197;-77
2021/01/14 09:57:47;;;;;;;24.70;23.13;;;3.90;84.90;;;;;;5033189;28;20686;-77
2021/01/14 10:00:21;;;;;;;23.52;22.05;;;3.90;84.70;;;;;;5017545;28;20194;-77
2021/01/14 10:02:51;;;;;;;23.77;22.00;;;3.90;84.80;;;;;;5014572;28;20299;-77
2021/01/14 10:05:21;;;;;;;24.50;22.90;;;3.70;84.80;;;;;;5014754;28;20198;-77
2021/01/14 10:07:49;;;;;;;23.23;21.63;;;3.60;84.60;;;;;;5026016;28;20213;-77
2021/01/14 10:10:17;;;;;;;23.10;21.60;;;3.70;85.40;;;;;;5034201;28;20204;-77
2021/01/14 10:12:44;;;;;;;22.23;20.63;;;3.80;85.90;;;;;;5033660;28;20217;-77
2021/01/14 10:15:13;;;;;;;21.38;20.15;;;3.90;87.70;;;;;;5034127;28;20201;-77
2021/01/14 10:17:40;;;;;;;22.20;20.55;;;4.00;85.80;;;;;;5033455;28;20300;-77
2021/01/14 10:20:08;;;;;;;22.52;20.92;;;4.10;86.00;;;;;;5033263;28;20663;-77
2021/01/14 10:22:46;;;;;;;23.75;21.92;;;4.10;87.10;;;;;;5033917;28;20197;-77
2021/01/14 10:25:13;;;;;;;24.00;22.50;;;4.10;85.40;;;;;;5033878;28;20201;-77
2021/01/14 10:27:39;;;;;;;24.38;22.88;;;4.20;84.60;;;;;;5032353;28;20583;-77
2021/01/14 10:30:20;;;;;;;22.50;21.20;;;4.00;80.80;;;;;;5013980;28;20198;-77
2021/01/14 10:32:47;;;;;;;23.50;21.83;;;3.80;81.40;;;;;;5024906;28;20282;-77
2021/01/14 10:35:27;;;;;;;23.73;22.17;;;3.80;81.50;;;;;;5033513;28;20288;-77
2021/01/14 10:38:08;;;;;;;22.35;20.90;;;3.80;81.20;;;;;;5023087;28;20304;-77
2021/01/14 10:40:36;;;;;;;22.73;21.42;;;3.70;81.00;;;;;;5013792;28;20244;-77
2021/01/14 10:43:03;;;;;;;23.65;22.08;;;3.60;81.30;;;;;;5013549;28;20200;-77
2021/01/14 10:45:32;;;;;;;24.52;23.08;;;3.60;81.60;;;;;;5013608;28;20202;-77
2021/01/14 10:48:12;;;;;;;23.95;22.63;;;3.80;81.40;;;;;;5024170;28;20213;-77
2021/01/14 10:50:58;;;;;;;23.13;21.50;;;3.60;81.30;;;;;;5033810;28;20209;-77
2021/01/14 10:53:27;;;;;;;24.33;22.73;;;3.80;81.40;;;;;;5033491;28;20306;-77
2021/01/14 10:56:05;;;;;;;25.65;23.85;;;3.80;81.20;;;;;;5032266;28;20228;-77
2021/01/14 10:58:31;;;;;;;24.60;23.10;;;3.80;81.90;;;;;;5033187;28;20205;-77
2021/01/14 11:00:57;;;;;;;26.08;24.40;;;3.70;80.80;;;;;;5016558;28;20212;-77
2021/01/14 11:03:26;;;;;;;23.63;22.23;;;3.80;80.90;;;;;;5014081;28;20538;-77
2021/01/14 11:05:53;;;;;;;24.10;22.60;;;3.80;81.30;;;;;;5013030;28;20284;-77
2021/01/14 11:08:21;;;;;;;23.92;22.42;;;3.90;81.40;;;;;;5017954;28;20280;-77
2021/01/14 11:11:00;;;;;;;25.40;23.50;;;3.70;81.40;;;;;;5025709;28;20217;-77
2021/01/14 11:13:36;;;;;;;24.20;22.30;;;3.70;80.90;;;;;;5013038;28;20229;-77
2021/01/14 11:16:03;;;;;;;24.10;22.52;;;3.40;81.50;;;;;;5012973;28;20557;-77
2021/01/14 11:18:29;;;;;;;24.35;22.85;;;3.40;82.40;;;;;;5008021;28;20195;-77
2021/01/14 11:20:56;;;;;;;26.00;24.23;;;3.60;83.80;;;;;;4993480;28;20199;-77
2021/01/14 11:23:22;;;;;;;23.67;22.23;;;3.70;80.90;;;;;;4997769;28;20186;-77
2021/01/14 11:25:49;;;;;;;26.67;24.35;;;3.60;81.50;;;;;;5012704;28;20255;-77
2021/01/14 11:28:16;;;;;;;24.63;22.95;;;3.60;81.90;;;;;;5012860;28;20297;-77
2021/01/14 11:30:42;;;;;;;25.58;23.77;;;3.50;81.20;;;;;;5013173;28;20204;-77
2021/01/14 11:33:08;;;;;;;25.17;23.38;;;3.50;81.20;;;;;;5022479;28;20213;-77
2021/01/14 11:35:35;;;;;;;25.60;23.85;;;3.60;81.50;;;;;;5032424;28;20201;-77
2021/01/14 11:38:01;;;;;;;25.13;23.10;;;3.50;81.00;;;;;;5032347;28;20308;-77
2021/01/14 11:40:28;;;;;;;26.65;24.65;;;3.50;81.10;;;;;;5028974;28;20190;-77
2021/01/14 11:42:55;;;;;;;25.58;23.88;;;3.70;81.30;;;;;;5012910;28;20194;-77
2021/01/14 11:45:21;;;;;;;26.42;24.67;;;3.70;80.80;;;;;;5012811;28;20200;-78
2021/01/14 11:47:47;;;;;;;26.80;24.30;;;3.50;80.80;;;;;;5012929;28;20240;-77
2021/01/14 11:50:14;;;;;;;25.55;23.23;;;3.30;82.40;;;;;;5028791;28;20196;-77
2021/01/14 11:52:40;;;;;;;24.13;22.70;;;3.40;82.70;;;;;;5012662;28;20214;-77
2021/01/14 11:55:08;;;;;;;24.80;23.00;;;3.50;81.40;;;;;;5012755;28;20214;-77
2021/01/14 11:57:34;;;;;;;27.40;25.30;;;3.40;81.00;;;;;;5012132;28;20703;-77
2021/01/14 12:00:01;;;;;;;24.88;23.17;;;3.60;80.40;;;;;;5030194;28;20193;-77
2021/01/14 12:02:30;;;;;;;27.20;25.40;;;3.70;80.50;;;;;;5017314;28;20667;-77
2021/01/14 12:04:56;;;;;;;26.30;24.40;;;3.90;79.80;;;;;;5012602;28;20194;-77
2021/01/14 12:07:22;;;;;;;26.30;24.80;;;4.00;79.20;;;;;;5012521;28;20596;-77
2021/01/14 12:09:49;;;;;;;24.45;22.83;;;4.10;78.80;;;;;;5016381;28;20567;-77
2021/01/14 12:12:15;;;;;;;27.00;24.95;;;4.10;80.80;;;;;;5017495;28;20198;-77
2021/01/14 12:14:41;;;;;;;25.80;24.15;;;4.20;76.60;;;;;;5016385;28;20221;-77
2021/01/14 12:17:08;;;;;;;26.33;24.42;;;4.30;77.30;;;;;;5016100;28;20228;-77
2021/01/14 12:19:35;;;;;;;24.67;22.92;;;4.50;77.70;;;;;;5017350;28;20199;-78
2021/01/14 12:22:03;;;;;;;26.17;24.38;;;4.50;74.60;;;;;;5016155;28;20205;-78
2021/01/14 12:24:29;;;;;;;25.27;23.40;;;4.40;74.90;;;;;;5016473;28;20190;-77
2021/01/14 12:26:56;;;;;;;25.90;24.20;;;4.10;74.30;;;;;;5016213;28;20218;-77
2021/01/14 12:29:22;;;;;;;25.20;23.50;;;3.90;75.30;;;;;;5028441;28;20194;-77
2021/01/14 12:31:49;;;;;;;25.08;23.58;;;3.90;76.00;;;;;;5034226;28;20256;-78
2021/01/14 12:34:16;;;;;;;25.15;23.45;;;4.20;75.90;;;;;;5036024;28;20217;-77
2021/01/14 12:36:43;;;;;;;27.45;25.80;;;4.30;75.20;;;;;;5035608;28;20652;-78
2021/01/14 12:39:09;;;;;;;25.58;24.02;;;4.50;74.60;;;;;;5035757;28;20568;-78
2021/01/14 12:41:36;;;;;;;25.92;24.50;;;4.20;74.20;;;;;;5035723;28;20201;-78
2021/01/14 12:44:03;;;;;;;27.17;25.02;;;4.20;74.00;;;;;;5034984;28;20197;-78
2021/01/14 12:46:34;;;;;;;27.27;25.38;;;4.30;73.60;;;;;;5035582;28;20266;-78
2021/01/14 12:49:00;;;;;;;26.40;24.65;;;4.30;78.30;;;;;;5035571;28;20200;-78